sensor_id;sensor_type;location;lat;lon;timestamp;temperature;humidity
55693;DHT22;41590;53.366;5.212;2022-11-20T00:01:46;1.60;99.90
55693;DHT22;41590;53.366;5.212;2022-11-20T00:04:12;1.50;99.90
55693;DHT22;41590;53.366;5.212;2022-11-20T00:07:07;1.60;99.90
55693;DHT22;41590;53.366;5.212;2022-11-20T00:09:33;1.30;99.90
55693;DHT22;41590;53.366;5.212;2022-11-20T00:12:00;1.40;99.90
55693;DHT22;41590;53.366;5.212;2022-11-20T00:14:39;1.40;99.90
55693;DHT22;41590;53.366;5.212;2022-11-20T00:17:11;1.70;99.90
55693;DHT22;41590;53.366;5.212;2022-11-20T00:19:47;1.00;99.90
55693;DHT22;41590;53.366;5.212;2022-11-20T00:22:31;0.90;99.90
55693;DHT22;41590;53.366;5.212;2022-11-20T00:24:57;1.30;99.90
55693;DHT22;41590;53.366;5.212;2022-11-20T00:27:37;0.70;99.90
55693;DHT22;41590;53.366;5.212;2022-11-20T00:30:08;1.30;99.90
55693;DHT22;41590;53.366;5.212;2022-11-20T00:32:34;0.60;99.90
55693;DHT22;41590;53.366;5.212;2022-11-20T00:35:18;1.50;99.90
55693;DHT22;41590;53.366;5.212;2022-11-20T00:37:45;1.30;99.90
55693;DHT22;41590;53.366;5.212;2022-11-20T00:40:11;0.50;99.90
55693;DHT22;41590;53.366;5.212;2022-11-20T00:45:47;0.60;99.90
55693;DHT22;41590;53.366;5.212;2022-11-20T00:48:42;0.40;99.90
55693;DHT22;41590;53.366;5.212;2022-11-20T00:51:41;0.30;99.90
55693;DHT22;41590;53.366;5.212;2022-11-20T00:54:31;0.40;99.90
55693;DHT22;41590;53.366;5.212;2022-11-20T00:57:13;0.70;99.90
55693;DHT22;41590;53.366;5.212;2022-11-20T01:02:32;0.60;99.90
55693;DHT22;41590;53.366;5.212;2022-11-20T01:05:05;0.80;99.90
55693;DHT22;41590;53.366;5.212;2022-11-20T01:07:39;0.60;99.90
55693;DHT22;41590;53.366;5.212;2022-11-20T01:10:22;0.60;99.90
55693;DHT22;41590;53.366;5.212;2022-11-20T01:15:54;0.60;99.90
55693;DHT22;41590;53.366;5.212;2022-11-20T01:18:24;0.70;99.90
55693;DHT22;41590;53.366;5.212;2022-11-20T01:20:51;1.20;99.90
55693;DHT22;41590;53.366;5.212;2022-11-20T01:23:50;1.50;99.90
55693;DHT22;41590;53.366;5.212;2022-11-20T01:26:28;0.50;99.90
55693;DHT22;41590;53.366;5.212;2022-11-20T01:28:57;0.50;99.90
55693;DHT22;41590;53.366;5.212;2022-11-20T01:38:22;0.40;99.90
55693;DHT22;41590;53.366;5.212;2022-11-20T01:40:56;0.40;99.90
55693;DHT22;41590;53.366;5.212;2022-11-20T01:43:24;0.50;99.90
55693;DHT22;41590;53.366;5.212;2022-11-20T01:48:56;0.60;99.90
55693;DHT22;41590;53.366;5.212;2022-11-20T01:51:44;1.00;99.90
55693;DHT22;41590;53.366;5.212;2022-11-20T01:54:36;1.20;99.90
55693;DHT22;41590;53.366;5.212;2022-11-20T01:57:04;0.80;99.90
55693;DHT22;41590;53.366;5.212;2022-11-20T01:59:44;0.80;99.90
55693;DHT22;41590;53.366;5.212;2022-11-20T02:02:26;0.90;99.90
55693;DHT22;41590;53.366;5.212;2022-11-20T02:05:14;1.40;99.90
55693;DHT22;41590;53.366;5.212;2022-11-20T02:07:46;1.00;99.90
55693;DHT22;41590;53.366;5.212;2022-11-20T02:10:20;1.00;99.90
55693;DHT22;41590;53.366;5.212;2022-11-20T02:12:46;1.50;99.90
55693;DHT22;41590;53.366;5.212;2022-11-20T02:15:33;1.20;99.90
55693;DHT22;41590;53.366;5.212;2022-11-20T02:17:59;1.50;99.90
55693;DHT22;41590;53.366;5.212;2022-11-20T02:20:41;2.30;99.90
55693;DHT22;41590;53.366;5.212;2022-11-20T02:27:05;1.20;99.90
55693;DHT22;41590;53.366;5.212;2022-11-20T02:32:43;1.20;99.90
55693;DHT22;41590;53.366;5.212;2022-11-20T02:35:41;1.50;99.90
55693;DHT22;41590;53.366;5.212;2022-11-20T02:38:39;1.50;99.90
55693;DHT22;41590;53.366;5.212;2022-11-20T02:41:18;1.50;99.90
55693;DHT22;41590;53.366;5.212;2022-11-20T02:43:48;2.10;99.90
55693;DHT22;41590;53.366;5.212;2022-11-20T02:46:47;1.70;99.90
55693;DHT22;41590;53.366;5.212;2022-11-20T02:52:48;1.50;99.90
55693;DHT22;41590;53.366;5.212;2022-11-20T02:55:13;1.60;99.90
55693;DHT22;41590;53.366;5.212;2022-11-20T02:57:45;2.40;99.90
55693;DHT22;41590;53.366;5.212;2022-11-20T03:00:19;1.80;99.90
55693;DHT22;41590;53.366;5.212;2022-11-20T03:02:45;1.80;99.90
55693;DHT22;41590;53.366;5.212;2022-11-20T03:05:19;2.60;99.90
55693;DHT22;41590;53.366;5.212;2022-11-20T03:07:45;2.40;99.90
55693;DHT22;41590;53.366;5.212;2022-11-20T03:10:16;2.30;99.90
55693;DHT22;41590;53.366;5.212;2022-11-20T03:12:42;2.20;99.90
55693;DHT22;41590;53.366;5.212;2022-11-20T03:15:23;1.90;99.90
55693;DHT22;41590;53.366;5.212;2022-11-20T03:17:53;1.90;99.90
55693;DHT22;41590;53.366;5.212;2022-11-20T03:20:23;2.70;99.90
55693;DHT22;41590;53.366;5.212;2022-11-20T03:22:51;1.80;99.90
55693;DHT22;41590;53.366;5.212;2022-11-20T03:25:51;2.60;99.90
55693;DHT22;41590;53.366;5.212;2022-11-20T03:28:19;1.80;99.90
55693;DHT22;41590;53.366;5.212;2022-11-20T03:30:57;1.80;99.90
55693;DHT22;41590;53.366;5.212;2022-11-20T03:33:38;1.70;99.90
55693;DHT22;41590;53.366;5.212;2022-11-20T03:39:32;1.60;99.90
55693;DHT22;41590;53.366;5.212;2022-11-20T03:42:14;1.40;99.90
55693;DHT22;41590;53.366;5.212;2022-11-20T03:45:13;1.50;99.90
55693;DHT22;41590;53.366;5.212;2022-11-20T03:47:51;1.50;99.90
55693;DHT22;41590;53.366;5.212;2022-11-20T03:50:22;1.70;99.90
55693;DHT22;41590;53.366;5.212;2022-11-20T03:52:54;1.30;99.90
55693;DHT22;41590;53.366;5.212;2022-11-20T03:55:23;2.20;99.90
55693;DHT22;41590;53.366;5.212;2022-11-20T03:58:06;1.40;99.90
55693;DHT22;41590;53.366;5.212;2022-11-20T04:03:21;1.20;99.90
55693;DHT22;41590;53.366;5.212;2022-11-20T04:05:51;1.40;99.90
55693;DHT22;41590;53.366;5.212;2022-11-20T04:08:33;1.40;99.90
55693;DHT22;41590;53.366;5.212;2022-11-20T04:11:32;1.10;99.90
55693;DHT22;41590;53.366;5.212;2022-11-20T04:14:23;0.60;99.90
55693;DHT22;41590;53.366;5.212;2022-11-20T04:16:50;0.80;99.90
55693;DHT22;41590;53.366;5.212;2022-11-20T04:19:37;0.80;99.90
55693;DHT22;41590;53.366;5.212;2022-11-20T04:22:25;0.40;99.90
55693;DHT22;41590;53.366;5.212;2022-11-20T04:24:57;0.40;99.90
55693;DHT22;41590;53.366;5.212;2022-11-20T04:27:25;0.90;99.90
55693;DHT22;41590;53.366;5.212;2022-11-20T04:29:57;0.40;99.90
55693;DHT22;41590;53.366;5.212;2022-11-20T04:32:56;0.60;99.90
55693;DHT22;41590;53.366;5.212;2022-11-20T04:35:40;0.50;99.90
55693;DHT22;41590;53.366;5.212;2022-11-20T04:38:09;0.90;99.90
55693;DHT22;41590;53.366;5.212;2022-11-20T04:40:57;0.30;99.90
55693;DHT22;41590;53.366;5.212;2022-11-20T04:43:24;0.20;99.90
55693;DHT22;41590;53.366;5.212;2022-11-20T04:45:56;1.30;99.90
55693;DHT22;41590;53.366;5.212;2022-11-20T04:48:27;0.60;99.90
55693;DHT22;41590;53.366;5.212;2022-11-20T04:51:08;0.40;99.90
55693;DHT22;41590;53.366;5.212;2022-11-20T04:53:51;1.10;99.90
55693;DHT22;41590;53.366;5.212;2022-11-20T04:56:29;0.60;99.90
55693;DHT22;41590;53.366;5.212;2022-11-20T04:59:02;0.20;99.90
55693;DHT22;41590;53.366;5.212;2022-11-20T05:05:14;0.60;99.90
55693;DHT22;41590;53.366;5.212;2022-11-20T05:07:47;0.60;99.90
55693;DHT22;41590;53.366;5.212;2022-11-20T05:10:13;1.50;99.90
55693;DHT22;41590;53.366;5.212;2022-11-20T05:12:45;0.90;99.90
55693;DHT22;41590;53.366;5.212;2022-11-20T05:15:27;1.00;99.90
55693;DHT22;41590;53.366;5.212;2022-11-20T05:18:02;1.30;99.90
55693;DHT22;41590;53.366;5.212;2022-11-20T05:20:28;1.30;99.90
55693;DHT22;41590;53.366;5.212;2022-11-20T05:29:33;1.40;99.90
55693;DHT22;41590;53.366;5.212;2022-11-20T05:31:59;1.50;99.90
55693;DHT22;41590;53.366;5.212;2022-11-20T05:34:31;1.50;99.90
55693;DHT22;41590;53.366;5.212;2022-11-20T05:36:58;2.50;99.90
55693;DHT22;41590;53.366;5.212;2022-11-20T05:39:30;2.20;99.90
55693;DHT22;41590;53.366;5.212;2022-11-20T05:42:06;2.50;99.90
55693;DHT22;41590;53.366;5.212;2022-11-20T05:48:05;1.70;99.90
55693;DHT22;41590;53.366;5.212;2022-11-20T05:50:39;1.80;99.90
55693;DHT22;41590;53.366;5.212;2022-11-20T05:53:11;2.70;99.90
55693;DHT22;41590;53.366;5.212;2022-11-20T05:56:00;2.40;99.90
55693;DHT22;41590;53.366;5.212;2022-11-20T05:58:48;1.90;99.90
55693;DHT22;41590;53.366;5.212;2022-11-20T06:01:36;2.00;99.90
55693;DHT22;41590;53.366;5.212;2022-11-20T06:04:01;2.00;99.90
55693;DHT22;41590;53.366;5.212;2022-11-20T06:06:33;2.00;99.90
55693;DHT22;41590;53.366;5.212;2022-11-20T06:09:22;2.30;99.90
55693;DHT22;41590;53.366;5.212;2022-11-20T06:24:28;2.10;99.90
55693;DHT22;41590;53.366;5.212;2022-11-20T06:30:22;2.00;99.90
55693;DHT22;41590;53.366;5.212;2022-11-20T06:32:53;2.20;99.90
55693;DHT22;41590;53.366;5.212;2022-11-20T06:35:20;2.80;99.90
55693;DHT22;41590;53.366;5.212;2022-11-20T06:40:55;2.20;99.90
55693;DHT22;41590;53.366;5.212;2022-11-20T06:47:47;2.10;99.90
55693;DHT22;41590;53.366;5.212;2022-11-20T06:53:38;1.90;99.90
55693;DHT22;41590;53.366;5.212;2022-11-20T06:56:05;1.80;99.90
55693;DHT22;41590;53.366;5.212;2022-11-20T06:58:32;1.80;99.90
55693;DHT22;41590;53.366;5.212;2022-11-20T07:01:06;2.40;99.90
55693;DHT22;41590;53.366;5.212;2022-11-20T07:03:32;1.70;99.90
55693;DHT22;41590;53.366;5.212;2022-11-20T07:06:00;2.40;99.90
55693;DHT22;41590;53.366;5.212;2022-11-20T07:08:38;2.60;99.90
55693;DHT22;41590;53.366;5.212;2022-11-20T07:11:06;2.40;99.90
55693;DHT22;41590;53.366;5.212;2022-11-20T07:13:32;1.80;99.90
55693;DHT22;41590;53.366;5.212;2022-11-20T07:16:07;1.80;99.90
55693;DHT22;41590;53.366;5.212;2022-11-20T07:18:38;1.90;99.90
55693;DHT22;41590;53.366;5.212;2022-11-20T07:21:08;1.90;99.90
55693;DHT22;41590;53.366;5.212;2022-11-20T07:23:36;1.60;99.90
55693;DHT22;41590;53.366;5.212;2022-11-20T07:26:06;2.30;99.90
55693;DHT22;41590;53.366;5.212;2022-11-20T07:28:35;2.40;99.90
55693;DHT22;41590;53.366;5.212;2022-11-20T07:31:06;1.70;99.90
55693;DHT22;41590;53.366;5.212;2022-11-20T07:33:34;2.20;99.90
55693;DHT22;41590;53.366;5.212;2022-11-20T07:36:10;2.80;99.90
55693;DHT22;41590;53.366;5.212;2022-11-20T07:38:40;1.90;99.90
55693;DHT22;41590;53.366;5.212;2022-11-20T07:41:13;1.90;99.90
55693;DHT22;41590;53.366;5.212;2022-11-20T07:43:45;2.60;99.90
55693;DHT22;41590;53.366;5.212;2022-11-20T07:46:37;2.00;99.90
55693;DHT22;41590;53.366;5.212;2022-11-20T07:49:03;1.90;99.90
55693;DHT22;41590;53.366;5.212;2022-11-20T07:51:36;1.90;99.90
55693;DHT22;41590;53.366;5.212;2022-11-20T07:57:43;2.10;99.90
55693;DHT22;41590;53.366;5.212;2022-11-20T08:00:25;2.10;99.90
55693;DHT22;41590;53.366;5.212;2022-11-20T08:03:04;2.60;99.90
55693;DHT22;41590;53.366;5.212;2022-11-20T08:05:30;2.30;99.90
55693;DHT22;41590;53.366;5.212;2022-11-20T08:08:25;2.30;99.90
55693;DHT22;41590;53.366;5.212;2022-11-20T08:10:56;2.30;99.90
55693;DHT22;41590;53.366;5.212;2022-11-20T08:14:08;3.00;99.90
55693;DHT22;41590;53.366;5.212;2022-11-20T08:16:53;2.40;99.90
55693;DHT22;41590;53.366;5.212;2022-11-20T08:19:37;3.10;99.90
55693;DHT22;41590;53.366;5.212;2022-11-20T08:22:15;2.60;99.90
55693;DHT22;41590;53.366;5.212;2022-11-20T08:24:46;3.20;99.90
55693;DHT22;41590;53.366;5.212;2022-11-20T08:27:43;2.70;99.90
55693;DHT22;41590;53.366;5.212;2022-11-20T08:30:37;2.90;99.90
55693;DHT22;41590;53.366;5.212;2022-11-20T08:33:15;3.00;99.90
55693;DHT22;41590;53.366;5.212;2022-11-20T08:35:52;3.40;99.90
55693;DHT22;41590;53.366;5.212;2022-11-20T08:38:36;3.30;99.90
55693;DHT22;41590;53.366;5.212;2022-11-20T08:41:07;3.20;99.90
55693;DHT22;41590;53.366;5.212;2022-11-20T08:44:08;3.30;99.90
55693;DHT22;41590;53.366;5.212;2022-11-20T08:46:41;3.50;99.90
55693;DHT22;41590;53.366;5.212;2022-11-20T08:49:11;3.50;99.90
55693;DHT22;41590;53.366;5.212;2022-11-20T08:51:46;3.60;99.90
55693;DHT22;41590;53.366;5.212;2022-11-20T08:54:31;3.60;99.90
55693;DHT22;41590;53.366;5.212;2022-11-20T08:57:11;3.50;99.90
55693;DHT22;41590;53.366;5.212;2022-11-20T09:06:12;3.50;99.90
55693;DHT22;41590;53.366;5.212;2022-11-20T09:08:41;4.20;99.90
55693;DHT22;41590;53.366;5.212;2022-11-20T09:11:13;3.80;99.90
55693;DHT22;41590;53.366;5.212;2022-11-20T09:13:41;4.20;99.90
55693;DHT22;41590;53.366;5.212;2022-11-20T09:16:12;3.80;99.90
55693;DHT22;41590;53.366;5.212;2022-11-20T09:18:57;4.00;99.90
55693;DHT22;41590;53.366;5.212;2022-11-20T09:25:03;4.00;99.90
55693;DHT22;41590;53.366;5.212;2022-11-20T09:28:04;4.00;99.90
55693;DHT22;41590;53.366;5.212;2022-11-20T09:30:46;4.10;99.90
55693;DHT22;41590;53.366;5.212;2022-11-20T09:33:13;4.90;99.90
55693;DHT22;41590;53.366;5.212;2022-11-20T09:35:40;4.20;99.90
55693;DHT22;41590;53.366;5.212;2022-11-20T09:38:17;4.10;99.90
55693;DHT22;41590;53.366;5.212;2022-11-20T09:41:04;4.10;99.90
55693;DHT22;41590;53.366;5.212;2022-11-20T09:46:40;4.00;99.90
55693;DHT22;41590;53.366;5.212;2022-11-20T09:49:32;4.10;99.90
55693;DHT22;41590;53.366;5.212;2022-11-20T09:52:33;4.00;99.90
55693;DHT22;41590;53.366;5.212;2022-11-20T09:55:19;4.00;99.90
55693;DHT22;41590;53.366;5.212;2022-11-20T09:57:51;4.00;99.90
55693;DHT22;41590;53.366;5.212;2022-11-20T10:00:17;4.00;99.90
55693;DHT22;41590;53.366;5.212;2022-11-20T10:03:16;4.10;99.90
55693;DHT22;41590;53.366;5.212;2022-11-20T10:05:52;4.10;99.90
55693;DHT22;41590;53.366;5.212;2022-11-20T10:08:27;4.10;99.90
55693;DHT22;41590;53.366;5.212;2022-11-20T10:23:48;4.00;99.90
55693;DHT22;41590;53.366;5.212;2022-11-20T10:26:31;4.00;99.90
55693;DHT22;41590;53.366;5.212;2022-11-20T10:29:22;4.20;99.90
55693;DHT22;41590;53.366;5.212;2022-11-20T10:32:24;4.20;99.90
55693;DHT22;41590;53.366;5.212;2022-11-20T10:38:01;4.30;99.90
55693;DHT22;41590;53.366;5.212;2022-11-20T10:40:55;4.40;99.90
55693;DHT22;41590;53.366;5.212;2022-11-20T10:49:30;4.60;99.90
55693;DHT22;41590;53.366;5.212;2022-11-20T10:52:16;4.60;99.90
55693;DHT22;41590;53.366;5.212;2022-11-20T11:01:05;4.90;99.90
55693;DHT22;41590;53.366;5.212;2022-11-20T11:03:53;5.00;99.90
55693;DHT22;41590;53.366;5.212;2022-11-20T11:06:41;5.10;99.90
55693;DHT22;41590;53.366;5.212;2022-11-20T13:20:36;5.10;99.90
55693;DHT22;41590;53.366;5.212;2022-11-20T13:23:07;3.80;99.90
55693;DHT22;41590;53.366;5.212;2022-11-20T13:25:40;3.80;99.90
55693;DHT22;41590;53.366;5.212;2022-11-20T13:31:29;3.80;99.90
55693;DHT22;41590;53.366;5.212;2022-11-20T13:33:56;3.70;99.90
55693;DHT22;41590;53.366;5.212;2022-11-20T13:36:26;3.80;99.90
55693;DHT22;41590;53.366;5.212;2022-11-20T13:42:03;3.60;99.90
55693;DHT22;41590;53.366;5.212;2022-11-20T13:51:50;3.60;99.90
55693;DHT22;41590;53.366;5.212;2022-11-20T14:03:47;3.60;99.90
55693;DHT22;41590;53.366;5.212;2022-11-20T14:06:29;3.60;99.90
55693;DHT22;41590;53.366;5.212;2022-11-20T14:11:34;3.60;99.90
55693;DHT22;41590;53.366;5.212;2022-11-20T14:14:01;3.90;99.90
55693;DHT22;41590;53.366;5.212;2022-11-20T14:16:33;3.60;99.90
55693;DHT22;41590;53.366;5.212;2022-11-20T14:19:28;3.80;99.90
55693;DHT22;41590;53.366;5.212;2022-11-20T14:22:18;3.50;99.90
55693;DHT22;41590;53.366;5.212;2022-11-20T14:24:51;3.50;99.90
55693;DHT22;41590;53.366;5.212;2022-11-20T14:27:27;3.50;99.90
55693;DHT22;41590;53.366;5.212;2022-11-20T14:29:53;3.80;99.90
55693;DHT22;41590;53.366;5.212;2022-11-20T14:32:25;3.80;99.90
55693;DHT22;41590;53.366;5.212;2022-11-20T14:34:53;3.50;99.90
55693;DHT22;41590;53.366;5.212;2022-11-20T14:37:23;3.50;99.90
55693;DHT22;41590;53.366;5.212;2022-11-20T14:39:53;3.50;99.90
55693;DHT22;41590;53.366;5.212;2022-11-20T14:42:25;3.90;99.90
55693;DHT22;41590;53.366;5.212;2022-11-20T14:44:56;3.80;99.90
55693;DHT22;41590;53.366;5.212;2022-11-20T14:47:26;3.50;99.90
55693;DHT22;41590;53.366;5.212;2022-11-20T14:49:54;3.50;99.90
55693;DHT22;41590;53.366;5.212;2022-11-20T14:52:26;3.50;99.90
55693;DHT22;41590;53.366;5.212;2022-11-20T14:54:54;3.50;99.90
55693;DHT22;41590;53.366;5.212;2022-11-20T14:57:31;4.40;99.90
55693;DHT22;41590;53.366;5.212;2022-11-20T15:00:20;3.50;99.90
55693;DHT22;41590;53.366;5.212;2022-11-20T15:02:51;3.50;99.90
55693;DHT22;41590;53.366;5.212;2022-11-20T15:05:24;4.20;99.90
55693;DHT22;41590;53.366;5.212;2022-11-20T15:08:08;3.40;99.90
55693;DHT22;41590;53.366;5.212;2022-11-20T15:10:35;3.40;99.90
55693;DHT22;41590;53.366;5.212;2022-11-20T15:13:24;3.50;99.90
55693;DHT22;41590;53.366;5.212;2022-11-20T15:15:54;3.40;99.90
55693;DHT22;41590;53.366;5.212;2022-11-20T15:18:38;3.40;99.90
55693;DHT22;41590;53.366;5.212;2022-11-20T15:21:12;3.40;99.90
55693;DHT22;41590;53.366;5.212;2022-11-20T15:23:42;3.90;99.90
55693;DHT22;41590;53.366;5.212;2022-11-20T15:26:10;3.70;99.90
55693;DHT22;41590;53.366;5.212;2022-11-20T15:28:44;4.10;99.90
55693;DHT22;41590;53.366;5.212;2022-11-20T15:31:19;3.30;99.90
55693;DHT22;41590;53.366;5.212;2022-11-20T15:33:48;3.20;99.90
55693;DHT22;41590;53.366;5.212;2022-11-20T15:36:19;3.20;99.90
55693;DHT22;41590;53.366;5.212;2022-11-20T15:38:46;3.30;99.90
55693;DHT22;41590;53.366;5.212;2022-11-20T15:41:13;3.60;99.90
55693;DHT22;41590;53.366;5.212;2022-11-20T15:43:43;3.10;99.90
55693;DHT22;41590;53.366;5.212;2022-11-20T15:46:15;3.10;99.90
55693;DHT22;41590;53.366;5.212;2022-11-20T15:48:55;3.50;99.90
55693;DHT22;41590;53.366;5.212;2022-11-20T15:53:55;2.90;99.90
55693;DHT22;41590;53.366;5.212;2022-11-20T15:56:22;3.10;99.90
55693;DHT22;41590;53.366;5.212;2022-11-20T15:58:55;3.20;99.90
55693;DHT22;41590;53.366;5.212;2022-11-20T16:01:25;2.90;99.90
55693;DHT22;41590;53.366;5.212;2022-11-20T16:03:56;2.90;99.90
55693;DHT22;41590;53.366;5.212;2022-11-20T16:06:47;2.90;99.90
55693;DHT22;41590;53.366;5.212;2022-11-20T16:09:18;2.80;99.90
55693;DHT22;41590;53.366;5.212;2022-11-20T16:11:45;2.90;99.90
55693;DHT22;41590;53.366;5.212;2022-11-20T16:14:15;2.70;99.90
55693;DHT22;41590;53.366;5.212;2022-11-20T16:17:13;2.90;99.90
55693;DHT22;41590;53.366;5.212;2022-11-20T16:22:39;2.70;99.90
55693;DHT22;41590;53.366;5.212;2022-11-20T16:25:12;2.70;99.90
55693;DHT22;41590;53.366;5.212;2022-11-20T16:27:37;2.70;99.90
55693;DHT22;41590;53.366;5.212;2022-11-20T16:30:04;2.70;99.90
55693;DHT22;41590;53.366;5.212;2022-11-20T16:32:31;2.70;99.90
55693;DHT22;41590;53.366;5.212;2022-11-20T16:34:59;2.70;99.90
55693;DHT22;41590;53.366;5.212;2022-11-20T16:37:28;3.20;99.90
55693;DHT22;41590;53.366;5.212;2022-11-20T16:39:55;2.70;99.90
55693;DHT22;41590;53.366;5.212;2022-11-20T16:42:24;2.60;99.90
55693;DHT22;41590;53.366;5.212;2022-11-20T16:44:50;3.40;99.90
55693;DHT22;41590;53.366;5.212;2022-11-20T16:47:18;2.60;99.90
55693;DHT22;41590;53.366;5.212;2022-11-20T16:49:45;2.90;99.90
55693;DHT22;41590;53.366;5.212;2022-11-20T16:52:11;2.90;99.90
55693;DHT22;41590;53.366;5.212;2022-11-20T16:54:37;3.50;99.90
55693;DHT22;41590;53.366;5.212;2022-11-20T16:57:05;2.60;99.90
55693;DHT22;41590;53.366;5.212;2022-11-20T16:59:32;2.90;99.90
55693;DHT22;41590;53.366;5.212;2022-11-20T17:01:59;3.20;99.90
55693;DHT22;41590;53.366;5.212;2022-11-20T17:04:25;2.80;99.90
55693;DHT22;41590;53.366;5.212;2022-11-20T17:06:51;2.60;99.90
55693;DHT22;41590;53.366;5.212;2022-11-20T17:09:19;3.00;99.90
55693;DHT22;41590;53.366;5.212;2022-11-20T17:11:47;2.60;99.90
55693;DHT22;41590;53.366;5.212;2022-11-20T17:14:14;2.60;99.90
55693;DHT22;41590;53.366;5.212;2022-11-20T17:16:42;3.10;99.90
55693;DHT22;41590;53.366;5.212;2022-11-20T17:19:18;2.60;99.90
55693;DHT22;41590;53.366;5.212;2022-11-20T17:21:44;2.60;99.90
55693;DHT22;41590;53.366;5.212;2022-11-20T17:24:11;2.60;99.90
55693;DHT22;41590;53.366;5.212;2022-11-20T17:26:39;3.00;99.90
55693;DHT22;41590;53.366;5.212;2022-11-20T17:29:15;2.60;99.90
55693;DHT22;41590;53.366;5.212;2022-11-20T17:31:46;2.60;99.90
55693;DHT22;41590;53.366;5.212;2022-11-20T17:34:14;3.30;99.90
55693;DHT22;41590;53.366;5.212;2022-11-20T17:36:40;2.70;99.90
55693;DHT22;41590;53.366;5.212;2022-11-20T17:39:10;2.80;99.90
55693;DHT22;41590;53.366;5.212;2022-11-20T17:41:38;2.60;99.90
55693;DHT22;41590;53.366;5.212;2022-11-20T17:44:09;2.90;99.90
55693;DHT22;41590;53.366;5.212;2022-11-20T17:46:39;2.60;99.90
55693;DHT22;41590;53.366;5.212;2022-11-20T17:49:05;2.60;99.90
55693;DHT22;41590;53.366;5.212;2022-11-20T17:51:33;2.60;99.90
55693;DHT22;41590;53.366;5.212;2022-11-20T17:54:02;2.60;99.90
55693;DHT22;41590;53.366;5.212;2022-11-20T17:56:34;2.60;99.90
55693;DHT22;41590;53.366;5.212;2022-11-20T17:59:26;3.30;99.90
55693;DHT22;41590;53.366;5.212;2022-11-20T18:02:04;3.40;99.90
55693;DHT22;41590;53.366;5.212;2022-11-20T18:04:30;2.70;99.90
55693;DHT22;41590;53.366;5.212;2022-11-20T18:10:14;2.60;99.90
55693;DHT22;41590;53.366;5.212;2022-11-20T18:12:44;2.60;99.90
55693;DHT22;41590;53.366;5.212;2022-11-20T18:15:09;2.60;99.90
55693;DHT22;41590;53.366;5.212;2022-11-20T18:17:41;2.50;99.90
55693;DHT22;41590;53.366;5.212;2022-11-20T18:20:13;2.90;99.90
55693;DHT22;41590;53.366;5.212;2022-11-20T18:22:41;2.50;99.90
55693;DHT22;41590;53.366;5.212;2022-11-20T18:25:07;2.60;99.90
55693;DHT22;41590;53.366;5.212;2022-11-20T18:27:34;2.60;99.90
55693;DHT22;41590;53.366;5.212;2022-11-20T18:30:03;2.60;99.90
55693;DHT22;41590;53.366;5.212;2022-11-20T18:32:30;2.50;99.90
55693;DHT22;41590;53.366;5.212;2022-11-20T18:34:56;2.50;99.90
55693;DHT22;41590;53.366;5.212;2022-11-20T18:37:21;2.50;99.90
55693;DHT22;41590;53.366;5.212;2022-11-20T18:39:54;2.50;99.90
55693;DHT22;41590;53.366;5.212;2022-11-20T18:42:23;2.50;99.90
55693;DHT22;41590;53.366;5.212;2022-11-20T18:45:08;2.50;99.90
55693;DHT22;41590;53.366;5.212;2022-11-20T18:47:36;2.50;99.90
55693;DHT22;41590;53.366;5.212;2022-11-20T18:50:06;2.50;99.90
55693;DHT22;41590;53.366;5.212;2022-11-20T18:52:40;2.50;99.90
55693;DHT22;41590;53.366;5.212;2022-11-20T18:55:13;2.40;99.90
55693;DHT22;41590;53.366;5.212;2022-11-20T18:57:45;2.50;99.90
55693;DHT22;41590;53.366;5.212;2022-11-20T19:00:12;3.20;99.90
55693;DHT22;41590;53.366;5.212;2022-11-20T19:02:42;2.40;99.90
55693;DHT22;41590;53.366;5.212;2022-11-20T19:05:13;2.90;99.90
55693;DHT22;41590;53.366;5.212;2022-11-20T19:07:41;2.50;99.90
55693;DHT22;41590;53.366;5.212;2022-11-20T19:10:07;2.40;99.90
55693;DHT22;41590;53.366;5.212;2022-11-20T19:12:37;2.50;99.90
55693;DHT22;41590;53.366;5.212;2022-11-20T19:15:17;2.40;99.90
55693;DHT22;41590;53.366;5.212;2022-11-20T19:17:42;2.60;99.90
55693;DHT22;41590;53.366;5.212;2022-11-20T19:20:09;2.50;99.90
55693;DHT22;41590;53.366;5.212;2022-11-20T19:22:34;2.40;99.90
55693;DHT22;41590;53.366;5.212;2022-11-20T19:27:53;2.40;99.90
55693;DHT22;41590;53.366;5.212;2022-11-20T19:30:31;2.40;99.90
55693;DHT22;41590;53.366;5.212;2022-11-20T19:32:57;2.40;99.90
55693;DHT22;41590;53.366;5.212;2022-11-20T19:35:26;2.50;99.90
55693;DHT22;41590;53.366;5.212;2022-11-20T19:37:54;2.40;99.90
55693;DHT22;41590;53.366;5.212;2022-11-20T19:40:21;2.40;99.90
55693;DHT22;41590;53.366;5.212;2022-11-20T19:43:05;2.40;99.90
55693;DHT22;41590;53.366;5.212;2022-11-20T19:45:45;2.40;99.90
55693;DHT22;41590;53.366;5.212;2022-11-20T19:48:20;2.40;99.90
55693;DHT22;41590;53.366;5.212;2022-11-20T19:50:46;3.10;99.90
55693;DHT22;41590;53.366;5.212;2022-11-20T19:53:12;2.70;99.90
55693;DHT22;41590;53.366;5.212;2022-11-20T19:59:14;2.40;99.90
55693;DHT22;41590;53.366;5.212;2022-11-20T20:01:46;2.40;99.90
55693;DHT22;41590;53.366;5.212;2022-11-20T20:04:28;2.40;99.90
55693;DHT22;41590;53.366;5.212;2022-11-20T20:06:54;3.40;99.90
55693;DHT22;41590;53.366;5.212;2022-11-20T20:09:26;2.40;99.90
55693;DHT22;41590;53.366;5.212;2022-11-20T20:11:55;3.00;99.90
55693;DHT22;41590;53.366;5.212;2022-11-20T20:14:29;2.40;99.90
55693;DHT22;41590;53.366;5.212;2022-11-20T20:17:06;2.40;99.90
55693;DHT22;41590;53.366;5.212;2022-11-20T20:19:36;2.40;99.90
55693;DHT22;41590;53.366;5.212;2022-11-20T20:22:06;2.40;99.90
55693;DHT22;41590;53.366;5.212;2022-11-20T20:24:33;2.40;99.90
55693;DHT22;41590;53.366;5.212;2022-11-20T20:27:05;2.50;99.90
55693;DHT22;41590;53.366;5.212;2022-11-20T20:29:46;3.20;99.90
55693;DHT22;41590;53.366;5.212;2022-11-20T20:32:44;2.40;99.90
55693;DHT22;41590;53.366;5.212;2022-11-20T20:35:25;2.40;99.90
55693;DHT22;41590;53.366;5.212;2022-11-20T20:37:56;2.30;99.90
55693;DHT22;41590;53.366;5.212;2022-11-20T20:40:27;3.10;99.90
55693;DHT22;41590;53.366;5.212;2022-11-20T20:42:57;2.90;99.90
55693;DHT22;41590;53.366;5.212;2022-11-20T20:45:34;2.70;99.90
55693;DHT22;41590;53.366;5.212;2022-11-20T20:48:08;2.20;99.90
55693;DHT22;41590;53.366;5.212;2022-11-20T20:50:38;2.30;99.90
55693;DHT22;41590;53.366;5.212;2022-11-20T20:53:09;2.50;99.90
55693;DHT22;41590;53.366;5.212;2022-11-20T20:55:36;2.20;99.90
55693;DHT22;41590;53.366;5.212;2022-11-20T20:58:20;2.20;99.90
55693;DHT22;41590;53.366;5.212;2022-11-20T21:12:33;2.20;99.90
55693;DHT22;41590;53.366;5.212;2022-11-20T21:15:02;2.30;99.90
55693;DHT22;41590;53.366;5.212;2022-11-20T21:17:30;2.10;99.90
55693;DHT22;41590;53.366;5.212;2022-11-20T21:19:58;2.30;99.90
55693;DHT22;41590;53.366;5.212;2022-11-20T21:22:30;2.10;99.90
55693;DHT22;41590;53.366;5.212;2022-11-20T21:24:57;2.30;99.90
55693;DHT22;41590;53.366;5.212;2022-11-20T21:27:33;2.80;99.90
55693;DHT22;41590;53.366;5.212;2022-11-20T21:30:03;2.10;99.90
55693;DHT22;41590;53.366;5.212;2022-11-20T21:32:32;2.00;99.90
55693;DHT22;41590;53.366;5.212;2022-11-20T21:35:08;2.10;99.90